Indian Springs, Nevada Weather observations

Data are for observation ending at time listed.
 Day   Time    Ave.   Ave.  Ave.  Vector   Max.   Stn.    Total    Solar   Ave.  
  of    of     Air    Rel.  Wind   Wind    Wind   Baro.  Precip.   Rad.    Soil  
Year   Day     Temp.  Hum.  Speed  Dir.    Gust   Pres.                    Temp. 
2019   (PST)    F      %     mph   deg.    mph     mb.     in.     W/m2     F   
------------------------------------------------------------------------------
 203    0:00   80.2    16    0.4   328      1.7   907.2    0.00       0    96.4
 203    0:10   80.6    16    0.1   262      0.9   907.1    0.00       0    96.2
 203    0:20   81.4    16    0.1   312      1.4   907.0    0.00       0    96.0
 203    0:30   80.2    16    0.0   195      0.5   907.0    0.00       0    95.8
 203    0:40   78.7    16    0.9   223      2.9   907.0    0.00       0    95.6
 203    0:50   79.6    14    1.2   231      2.8   907.0    0.00       0    95.4
 203    1:00   80.2    14    1.1   240      2.3   907.0    0.00       0    95.1
 203    1:10   80.8    15    1.0   295      3.4   907.1    0.00       0    94.9
 203    1:20   79.3    14    0.8   238      1.8   907.2    0.00       0    94.7
 203    1:30   78.2    15    0.2   218      1.7   907.3    0.00       0    94.5
 203    1:40   77.6    15    0.6   208      3.1   907.2    0.00       0    94.3
 203    1:50   76.6    17    0.2   160      1.6   907.1    0.00       0    94.2
 203    2:00   76.0    18    0.1   207      0.9   907.1    0.00       0    94.0
 203    2:10   76.2    17    1.1   231      3.8   907.1    0.00       0    93.8
 203    2:20   77.5    16    0.5   268      2.6   907.1    0.00       0    93.6
 203    2:30   76.8    17    0.6   207      3.1   907.1    0.00       0    93.3
 203    2:40   77.8    15    0.6   268      1.8   907.1    0.00       0    93.2
 203    2:50   77.1    15    0.6   223      1.9   907.1    0.00       0    93.0
 203    3:00   76.4    16    0.8   253      2.5   907.1    0.00       0    92.9
 203    3:10   77.0    16    1.6   238      2.9   907.1    0.00       0    92.7
 203    3:20   76.3    16    1.6   238      2.7   907.1    0.00       0    92.5
 203    3:30   75.8    17    0.9   234      2.3   907.1    0.00       0    92.3
 203    3:40   74.3    20    0.0    97      0.7   907.1    0.00       0    92.1
 203    3:50   73.2    21    0.1   101      0.7   907.2    0.00       0    92.0
 203    4:00   72.5    22    0.1   120      0.9   907.2    0.00       0    91.8
 203    4:10   72.2    22    0.1   141      0.9   907.2    0.00       0    91.7
 203    4:20   72.5    21    0.0     0      0.0   907.1    0.00       0    91.5
 203    4:30   73.3    20    0.3   222      1.3   907.1    0.00       0    91.3
 203    4:40   73.7    19    0.2   234      1.6   907.2    0.00       2    91.1
 203    4:50   72.8    21    0.0     0      0.0   907.3    0.00       6    91.0
 203    5:00   72.5    22    0.0    38      0.9   907.4    0.00      18    90.9
 203    5:10   73.0    22    0.0     0      0.0   907.4    0.00      42    90.7
 203    5:20   75.6    20    0.3    87      1.8   907.5    0.00      71    90.4
 203    5:30   78.0    18    0.0    42      1.1   907.6    0.00     112    90.2
 203    5:40   81.4    17    0.1   292      1.4   907.8    0.00     157    90.0
 203    5:50   80.0    17    1.1   314      3.3   908.0    0.00     171    89.9
 203    6:00   78.4    18    0.3   312      2.3   908.2    0.00     106    89.7
 203    6:10   78.1    19    0.1   207      1.0   908.4    0.00      92    89.6
 203    6:20   77.4    21    0.7    76      2.0   908.4    0.00     102    89.6
 203    6:30   77.9    22    0.6   348      1.8   908.5    0.00     313    89.5
 203    6:40   81.0    17    0.3   298      1.7   908.7    0.00     366    89.4
 203    6:50   81.6    16    0.6   256      1.7   909.0    0.00     328    89.3
 203    7:00   82.3    14    0.6   236      1.8   909.2    0.00     325    89.2
 203    7:10   84.4    14    0.1   206      1.1   909.4    0.00     377    89.2
 203    7:20   87.1    15    0.2    49      1.1   909.7    0.00     359    89.2
 203    7:30   86.2    15    1.1    73      2.6   909.9    0.00     352    89.2
 203    7:40   86.4    15    0.2    64      1.0   910.1    0.00     353    89.3
 203    7:50   87.4    14    1.0    89      2.5   910.2    0.00     472    89.4
 203    8:00   88.2    13    1.1    79      2.6   910.3    0.00     590    89.5
 203    8:10   89.1    13    1.6    69      2.8   910.6    0.00     627    89.7
 203    8:20   90.5    13    1.2    63      3.3   910.7    0.00     651    89.8
 203    8:30   92.0    12    1.4    94      3.2   910.9    0.00     742    90.0
 203    8:40   92.8    12    1.7    81      4.6   911.2    0.00     759    90.1
 203    8:50   94.3    12    0.9    34      2.7   911.4    0.00     713    90.4
 203    9:00   95.3    11    1.1    68      3.7   911.6    0.00     845    90.6
 203    9:10   95.8    11    2.0    68      5.2   911.7    0.00     753    90.9
 203    9:20   96.4    11    3.2    71      9.5   911.8    0.00     900    91.2
 203    9:30   96.3    11    3.9    81      7.7   912.0    0.00     922    91.6
 203    9:40   96.8    11    4.0    81      7.6   912.1    0.00     944    92.0
 203    9:50   97.5    11    4.1    92      7.7   912.1    0.00     969    92.4
 203   10:00   97.8    11    4.6    81      8.1   912.2    0.00     968    92.8
 203   10:10   98.3    11    5.1    89      9.7   912.2    0.00     743    93.3
 203   10:20   98.6    11    4.2    83      9.9   912.1    0.00     947    93.8
 203   10:30   99.3    12    4.8    79      9.1   912.1    0.00    1000    94.2
 203   10:40   99.5    11    5.0    80     12.1   912.2    0.00    1091    94.6
 203   10:50   99.5    11    4.1    95      9.7   912.2    0.00     756    95.1
 203   11:00   98.7    11    4.4    96     15.4   912.2    0.00     455    95.6
 203   11:10   98.8    11    5.9    88     12.9   912.0    0.00     931    96.0
 203   11:20   99.7    11    7.6   101     14.5   911.8    0.00     933    96.5
 203   11:30   99.6    12    6.3   101     15.3   911.8    0.00     869    96.8
 203   11:40   99.4    12    6.6   103     17.8   911.8    0.00     571    97.2
 203   11:50   98.7    12    5.3   103     14.8   911.7    0.00     504    97.6
 203   12:00   99.9    12    6.8   103     14.3   911.6    0.00     781    98.0
 203   12:10  100.8    12    6.0   106     17.6   911.6    0.00     959    98.3
 203   12:20  100.3    12    8.7    93     17.8   911.6    0.00     743    98.6
 203   12:30   99.3    13    8.2   101     13.8   911.6    0.00     678    98.8
 203   12:40  100.5    12    6.2   103     13.9   911.4    0.00     694    99.1
 203   12:50   99.3    13    8.5   106     19.3   911.4    0.00     572    99.3
 203   13:00   99.4    13    5.6   106     15.7   911.2    0.00     551    99.6
 203   13:10   99.7    13    6.2   101     12.3   911.2    0.00     482    99.8
 203   13:20   99.2    13    6.4    96     12.1   911.1    0.00     432    100.1
 203   13:30   99.6    11    4.6    75      9.9   911.1    0.00     373    100.2
 203   13:40  100.0    12    3.6    98     10.6   911.0    0.00     349    100.4
 203   13:50  100.2    11    4.0    69      8.3   910.9    0.00     424    100.5
 203   14:00  100.5    12    4.4    92     11.5   910.9    0.00     607    100.6
 203   14:10  101.4    12    4.7    95     10.0   910.9    0.00     596    100.8
 203   14:20  100.9    12    5.3    80      9.9   910.9    0.00     378    100.8
 203   14:30  100.6    12    5.4    98     18.5   910.8    0.00     343    100.9
 203   14:40  100.3    12    7.3    88     17.5   910.7    0.00     317    101.0
 203   14:50  100.1    13    7.2   100     13.5   910.6    0.00     568    101.1
 203   15:00   99.9    13    8.3   102     16.3   910.5    0.00     296    101.2
 203   15:10   99.0    14    8.6   105     18.9   910.4    0.00     236    101.2
 203   15:20   98.9    13    6.9   108     15.9   910.2    0.00     240    101.2
 203   15:30   99.2    13    5.6   100     12.2   910.1    0.00     312    101.2
 203   15:40  100.0    13    3.5   134     10.8   910.1    0.00     249    101.2
 203   15:50  100.0    13    3.6   117      8.9   910.1    0.00     239    101.2
 203   16:00   99.2    13    5.5   104     13.7   910.1    0.00     162    101.2
 203   16:10   98.8    13    5.7   106     14.0   910.0    0.00     144    101.2
 203   16:20   98.7    13    5.8    99     11.0   910.0    0.00     158    101.2
 203   16:30   99.0    13    5.9    95     11.5   910.0    0.00     230    101.1
 203   16:40   99.9    13    5.6    99     13.9   909.9    0.00     519    101.0
 203   16:50  101.2    13    5.0   102     11.8   909.9    0.00     502    101.0
 203   17:00  100.6    13    6.5   106     14.0   910.0    0.00     429    100.9
 203   17:10  100.3    13    3.2   108      9.3   910.0    0.00     217    100.9
 203   17:20   99.9    12    3.8   113     12.2   910.0    0.00     129    100.8
 203   17:30   99.4    13    3.1   118      7.9   910.0    0.00     109    100.7
 203   17:40   99.4    13    3.2   108      8.3   910.0    0.00      92    100.7
 203   17:50   99.2    13    5.4   100     10.7   909.9    0.00     145    100.6
 203   18:00   99.4    13    5.9   100     13.1   909.8    0.00     163    100.6
 203   18:10   98.7    13    6.4   107     14.6   909.8    0.00      49    100.5
 203   18:20   98.3    13    4.3   109     10.8   909.8    0.00      43    100.4
 203   18:30   98.0    14    4.9   105     11.3   909.9    0.00      43    100.3
 203   18:40   97.6    14    5.8   106     14.4   909.9    0.00      28    100.3
 203   18:50   97.6    13    4.4   162     11.4   910.1    0.00      12    100.2
 203   19:00   98.1    12    2.5   131      6.6   910.3    0.00       6    100.1
 203   19:10   97.0    12    1.8   292      5.4   910.3    0.00       1    100.0
 203   19:20   95.9    12    3.0   268      8.0   910.3    0.00       0    99.9
 203   19:30   96.0    12    3.4   245      7.3   910.2    0.00       0    99.7
 203   19:40   95.8    12    3.7   244      6.5   910.2    0.00       0    99.6
 203   19:50   95.1    12    1.6   260      4.6   910.2    0.00       0    99.5
 203   20:00   94.8    12    1.9   242      3.8   910.2    0.00       0    99.2
 203   20:10   94.5    13    1.4   250      3.5   910.3    0.00       0    99.1
 203   20:20   93.8    13    1.1   223      4.7   910.4    0.00       0    98.9
 203   20:30   92.6    13    0.7   215      2.0   910.4    0.00       0    98.7
 203   20:40   93.0    13    1.4   242      3.7   910.4    0.00       0    98.6
 203   20:50   93.8    13    1.9   253      4.2   910.5    0.00       0    98.5
 203   21:00   93.7    13    1.9   236      4.2   910.5    0.00       0    98.3
 203   21:10   92.8    13    1.3   226      3.3   910.6    0.00       0    98.1
 203   21:20   91.9    13    0.7   194      1.8   910.6    0.00       0    98.0
 203   21:30   91.8    13    0.6   233      2.4   910.5    0.00       0    97.8
 203   21:40   91.6    13    0.2   230      1.4   910.5    0.00       0    97.6
 203   21:50   90.8    15    0.2   253      1.9   910.4    0.00       0    97.5
 203   22:00   90.6    16    0.8   296      2.6   910.4    0.00       0    97.3
 203   22:10   90.0    16    0.1   130      1.0   910.5    0.00       0    97.2
 203   22:20   88.8    17    0.0   119      0.6   910.6    0.00       0    97.0
 203   22:30   88.6    17    0.0   182      0.6   910.6    0.00       0    96.9
 203   22:40   88.4    17    0.0     0      0.0   910.6    0.00       0    96.7
 203   22:50   87.9    18    0.5   134      1.8   910.7    0.00       0    96.6
 203   23:00   88.1    17    0.5   151      1.8   910.8    0.00       0    96.4

Return to Indian Springs, Nevada graphs page.


Western Regional Climate Center,wrcc@dri.edu